Terminal Aerodrome Forecast
Issued by NWS Austin/San Antonio, TX

Home | Current Version | Previous Version | Text Only | Print | Product List | Glossary On
Versions: 1 2 3 4 5 6 7 8 9 10 11 12 13 14 15 16 17 18 19 20 21 22 23 24 25 26 27 28 29 30 31 32
000
FTUS44 KEWX 241141
TAFAUS
TAF
KAUS 241141Z 2412/2518 13006KT P6SM VCSH FEW005 SCT050 SCT110
     FM241300 17013KT P6SM BKN005 OVC110
     FM241600 18013KT P6SM SCT030
     FM250400 15010KT 6SM BR OVC015
     FM250700 15010KT 4SM BR OVC007
     FM251700 16010KT P6SM BKN018=

USA.gov is the U.S. government's official web portal to all federal, state and local government web resources and services.